Justin, Texas
Current Conditions -  °F | °C
As of 1:53 PM on Sunday 23 Nov 2014 (Local Time) from KAFW Reporting Station
Scattered Clouds Scattered Clouds  
Wind Chill: 76°   Ceiling: Unl
Heat Index: 76°   Visibility: 10mi
Dew Point: 37°   Wind: 16mph
Humidity: 24%   Direction: 270°W
Pressure: 29.38"   Gusts: 30mph
Location:  33.08°N, 97.3°W
Report Text: KAFW 231953Z 27014G26KT 10SM SCT090 24/03 A2938 RMK AO2 PK WND 27028/1935 SLP943 T02440028
Loading
Personal Weather Stations






























Interactive Weather Map New forecast layout! Learn more

10-Day Weather Forecast

Advertisements
Track Severe Weather on mobile